createdAt,value
2019-03-05T00:00:28.440Z,5.67
2019-03-05T00:03:00.468Z,5.57
2019-03-05T00:05:29.498Z,5.57
2019-03-05T00:07:58.074Z,5.48
2019-03-05T00:10:26.633Z,5.54
2019-03-05T00:12:55.015Z,5.33
2019-03-05T00:15:30.413Z,5.44
2019-03-05T00:17:59.563Z,5.47
2019-03-05T00:20:31.620Z,5.51
2019-03-05T00:23:00.502Z,5.52
2019-03-05T00:25:40.960Z,5.33
2019-03-05T00:28:33.722Z,5.43
2019-03-05T00:31:13.940Z,5.52
2019-03-05T00:33:58.588Z,5.54
2019-03-05T00:36:30.278Z,5.46
2019-03-05T00:39:07.409Z,5.54
2019-03-05T00:41:53.785Z,5.56
2019-03-05T00:44:28.235Z,5.52
2019-03-05T00:47:19.475Z,5.53
2019-03-05T00:49:51.457Z,5.50
2019-03-05T00:52:40.316Z,5.44
2019-03-05T00:55:39.165Z,5.44
2019-03-05T00:58:21.512Z,5.44
2019-03-05T01:01:06.010Z,5.43
2019-03-05T01:03:54.476Z,5.44
2019-03-05T01:06:25.855Z,5.45
2019-03-05T01:08:57.293Z,5.54
2019-03-05T01:11:26.457Z,5.47
2019-03-05T01:13:56.764Z,5.39
2019-03-05T01:16:33.184Z,5.34
2019-03-05T01:19:01.600Z,5.28
2019-03-05T01:21:30.083Z,5.28
2019-03-05T01:23:58.541Z,5.21
2019-03-05T01:26:27.143Z,5.17
2019-03-05T01:28:55.771Z,5.20
2019-03-05T01:31:31.644Z,5.13
2019-03-05T01:34:05.498Z,5.14
2019-03-05T01:36:41.914Z,5.15
2019-03-05T01:39:21.390Z,5.18
2019-03-05T01:41:49.782Z,5.15
2019-03-05T01:44:18.533Z,5.04
2019-03-05T01:46:47.323Z,5.04
2019-03-05T01:49:16.018Z,5.12
2019-03-05T01:51:44.429Z,5.08
2019-03-05T01:54:13.405Z,5.11
2019-03-05T01:56:41.959Z,5.18
2019-03-05T01:59:12.068Z,5.22
2019-03-05T02:01:40.623Z,5.12
2019-03-05T02:04:09.095Z,5.16
2019-03-05T02:06:37.567Z,5.13
2019-03-05T02:09:08.081Z,5.18
2019-03-05T02:11:36.872Z,5.15
2019-03-05T02:14:05.396Z,5.20
2019-03-05T02:16:33.890Z,5.26
2019-03-05T02:19:27.903Z,5.27
2019-03-05T02:21:56.841Z,5.35
2019-03-05T02:24:45.058Z,5.20
2019-03-05T02:27:42.587Z,5.28
2019-03-05T02:30:40.388Z,5.22
2019-03-05T02:33:45.365Z,5.19
2019-03-05T02:36:44.056Z,5.32
2019-03-05T02:39:38.502Z,5.36
2019-03-05T02:42:24.913Z,5.46
2019-03-05T02:45:02.733Z,5.42
2019-03-05T02:47:43.314Z,5.37
2019-03-05T02:50:40.737Z,5.34
2019-03-05T02:53:15.546Z,5.43
2019-03-05T02:55:52.995Z,5.37
2019-03-05T02:58:21.071Z,5.45
2019-03-05T03:01:00.104Z,5.41
2019-03-05T03:03:30.626Z,5.45
2019-03-05T03:06:01.677Z,5.42
2019-03-05T03:08:30.119Z,5.53
2019-03-05T03:10:58.557Z,5.37
2019-03-05T03:13:27.007Z,5.52
2019-03-05T03:15:55.360Z,5.46
2019-03-05T03:18:23.775Z,5.58
2019-03-05T03:20:52.240Z,5.52
2019-03-05T03:23:20.578Z,5.48
2019-03-05T03:25:49.031Z,5.53
2019-03-05T03:28:17.447Z,5.45
2019-03-05T03:30:45.832Z,5.54
2019-03-05T03:33:14.272Z,5.53
2019-03-05T03:35:42.633Z,5.53
2019-03-05T03:38:11.095Z,5.51
2019-03-05T03:40:39.698Z,5.53
2019-03-05T03:43:08.199Z,5.59
2019-03-05T03:45:36.638Z,5.60
2019-03-05T03:48:05.139Z,5.63
2019-03-05T03:50:33.508Z,5.61
2019-03-05T03:53:01.924Z,5.61
2019-03-05T03:55:30.375Z,5.57
2019-03-05T03:57:58.794Z,5.58
2019-03-05T04:00:27.323Z,5.61
2019-03-05T04:02:55.719Z,5.57
2019-03-05T04:05:24.306Z,5.60
2019-03-05T04:07:52.717Z,5.68
2019-03-05T04:10:21.265Z,5.68
2019-03-05T04:12:49.663Z,5.68
2019-03-05T04:15:19.098Z,5.65
2019-03-05T04:17:47.610Z,5.66
2019-03-05T04:20:18.663Z,5.68
2019-03-05T04:22:48.317Z,5.69
2019-03-05T04:25:16.692Z,5.68
2019-03-05T04:27:45.114Z,5.64
2019-03-05T04:30:14.734Z,5.68
2019-03-05T04:32:43.067Z,5.77
2019-03-05T04:35:12.795Z,5.60
2019-03-05T04:37:41.140Z,5.59
2019-03-05T04:40:11.488Z,5.60
2019-03-05T04:42:39.947Z,5.57
2019-03-05T04:45:49.573Z,5.62
2019-03-05T04:48:18.055Z,5.59
2019-03-05T04:50:59.737Z,5.55
2019-03-05T04:53:28.163Z,5.63
2019-03-05T04:55:56.554Z,5.55
2019-03-05T04:58:24.970Z,5.54
2019-03-05T05:00:53.497Z,5.44
2019-03-05T05:03:21.923Z,5.54
2019-03-05T05:05:50.284Z,5.50
2019-03-05T05:08:18.663Z,5.51
2019-03-05T05:10:47.103Z,5.49
2019-03-05T05:13:15.554Z,5.61
2019-03-05T05:15:44.040Z,5.49
2019-03-05T05:18:12.423Z,5.52
2019-03-05T05:20:40.861Z,5.53
2019-03-05T05:23:09.321Z,5.54
2019-03-05T05:25:37.735Z,5.62
2019-03-05T05:28:06.114Z,5.60
2019-03-05T05:30:38.942Z,5.64
2019-03-05T05:33:08.360Z,5.53
2019-03-05T05:35:36.841Z,5.58
2019-03-05T05:38:05.657Z,5.64
2019-03-05T05:40:42.313Z,5.62
2019-03-05T05:43:28.740Z,5.69
2019-03-05T05:45:57.157Z,5.63
2019-03-05T05:48:25.621Z,5.61
2019-03-05T05:50:54.031Z,5.62
2019-03-05T05:53:22.481Z,5.71
2019-03-05T05:55:50.911Z,5.59
2019-03-05T05:58:19.373Z,5.67
2019-03-05T06:00:49.531Z,5.64
2019-03-05T06:03:18.059Z,5.57
2019-03-05T06:05:46.485Z,5.51
2019-03-05T06:08:14.936Z,5.46
2019-03-05T06:10:43.410Z,5.46
2019-03-05T06:13:11.843Z,5.60
2019-03-05T06:15:40.250Z,5.53
2019-03-05T06:18:08.711Z,5.56
2019-03-05T06:20:37.120Z,5.59
2019-03-05T06:23:05.584Z,5.52
2019-03-05T06:25:34.064Z,5.55
2019-03-05T06:28:02.589Z,5.61
2019-03-05T06:30:36.683Z,5.50
2019-03-05T06:33:05.127Z,5.52
2019-03-05T06:35:33.554Z,5.49
2019-03-05T06:38:01.940Z,5.47
2019-03-05T06:40:32.195Z,5.60
2019-03-05T06:43:00.643Z,5.62
2019-03-05T06:45:29.059Z,5.57
2019-03-05T06:47:57.529Z,5.54
2019-03-05T06:50:27.301Z,5.60
2019-03-05T06:52:55.841Z,5.59
2019-03-05T06:55:24.239Z,5.63
2019-03-05T06:57:52.629Z,5.48
2019-03-05T07:00:40.972Z,5.54
2019-03-05T07:03:10.201Z,5.58
2019-03-05T07:06:15.116Z,5.64
2019-03-05T07:08:58.361Z,5.53
2019-03-05T07:11:38.996Z,5.63
2019-03-05T07:14:10.550Z,5.66
2019-03-05T07:16:53.965Z,5.65
2019-03-05T07:19:24.792Z,5.63
2019-03-05T07:22:26.504Z,5.66
2019-03-05T07:24:54.885Z,5.58
2019-03-05T07:27:27.449Z,5.57
2019-03-05T07:29:58.714Z,5.63
2019-03-05T07:32:28.407Z,5.70
2019-03-05T07:34:56.987Z,5.63
2019-03-05T07:37:25.337Z,5.66
2019-03-05T07:39:53.734Z,5.64
2019-03-05T07:42:22.093Z,5.64
2019-03-05T07:44:50.563Z,5.55
2019-03-05T07:47:19.000Z,5.54
2019-03-05T07:49:47.412Z,5.45
2019-03-05T07:52:15.773Z,5.33
2019-03-05T07:54:44.230Z,5.23
2019-03-05T07:57:12.648Z,5.11
2019-03-05T07:59:41.104Z,5.14
2019-03-05T08:02:09.918Z,4.98
2019-03-05T08:04:38.372Z,4.81
2019-03-05T08:07:06.801Z,4.77
2019-03-05T08:09:38.961Z,4.72
2019-03-05T08:12:22.484Z,4.60
2019-03-05T08:15:00.762Z,4.60
2019-03-05T08:17:29.255Z,4.61
2019-03-05T08:19:57.780Z,4.63
2019-03-05T08:22:26.294Z,4.80
2019-03-05T08:24:54.829Z,4.77
2019-03-05T08:27:23.493Z,4.80
2019-03-05T08:29:52.169Z,4.79
2019-03-05T08:32:20.595Z,4.78
2019-03-05T08:34:49.120Z,4.85
2019-03-05T08:37:17.459Z,5.00
2019-03-05T08:39:45.903Z,4.87
2019-03-05T08:42:14.316Z,4.90
2019-03-05T08:44:50.403Z,4.91
2019-03-05T08:47:12.910Z,4.88
2019-03-05T08:49:41.260Z,4.90
2019-03-05T08:52:09.660Z,4.88
2019-03-05T08:54:38.082Z,4.87
2019-03-05T08:57:06.486Z,4.97
2019-03-05T08:59:34.875Z,4.97
2019-03-05T09:02:03.323Z,4.99
2019-03-05T09:04:31.693Z,5.00
2019-03-05T09:07:00.213Z,5.04
2019-03-05T09:09:28.563Z,5.12
2019-03-05T09:11:57.026Z,5.18
2019-03-05T09:14:25.386Z,5.19
2019-03-05T09:16:53.832Z,5.26
2019-03-05T09:19:22.482Z,5.43
2019-03-05T09:21:51.449Z,5.41
2019-03-05T09:24:19.791Z,5.45
2019-03-05T09:26:51.611Z,5.50
2019-03-05T09:29:18.394Z,5.53
2019-03-05T09:31:46.774Z,5.64
2019-03-05T09:34:17.528Z,5.67
2019-03-05T09:36:50.823Z,5.79
2019-03-05T09:39:17.036Z,5.71
2019-03-05T09:41:45.533Z,5.77
2019-03-05T09:44:14.034Z,5.79
2019-03-05T09:46:42.520Z,5.88
2019-03-05T09:49:11.026Z,5.98
2019-03-05T09:51:39.492Z,5.97
2019-03-05T09:54:07.922Z,5.92
2019-03-05T09:56:36.755Z,5.92
2019-03-05T09:59:05.723Z,5.90
2019-03-05T10:01:34.260Z,5.97
2019-03-05T10:04:02.678Z,5.87
2019-03-05T10:06:31.161Z,5.85
2019-03-05T10:08:59.570Z,5.92
2019-03-05T10:11:28.041Z,5.92
2019-03-05T10:13:56.476Z,5.96
2019-03-05T10:16:25.001Z,5.97
2019-03-05T10:18:53.551Z,5.97
2019-03-05T10:21:22.642Z,6.01
2019-03-05T10:23:51.168Z,6.12
2019-03-05T10:26:19.671Z,6.05
2019-03-05T10:28:48.303Z,6.09
2019-03-05T10:31:18.744Z,6.16
2019-03-05T10:33:46.935Z,6.12
2019-03-05T10:36:15.472Z,6.08
2019-03-05T10:38:43.950Z,6.06
2019-03-05T10:41:12.370Z,6.03
2019-03-05T10:43:40.820Z,5.98
2019-03-05T10:46:09.258Z,5.91
2019-03-05T10:48:37.786Z,5.93
2019-03-05T10:51:06.217Z,5.93
2019-03-05T10:53:34.676Z,5.97
2019-03-05T10:56:03.168Z,5.93
2019-03-05T10:58:34.206Z,5.97
2019-03-05T11:01:02.033Z,5.98
2019-03-05T11:03:30.871Z,6.03
2019-03-05T11:05:59.730Z,5.97
2019-03-05T11:08:28.777Z,6.03
2019-03-05T11:10:57.894Z,6.07
2019-03-05T11:13:26.375Z,6.09
2019-03-05T11:16:00.664Z,6.18
2019-03-05T11:18:30.120Z,6.05
2019-03-05T11:20:58.730Z,6.02
2019-03-05T11:23:27.140Z,5.97
2019-03-05T11:25:55.748Z,5.93
2019-03-05T11:28:24.212Z,5.93
2019-03-05T11:30:52.698Z,6.00
2019-03-05T11:33:21.394Z,5.95
2019-03-05T11:35:49.910Z,5.93
2019-03-05T11:38:18.466Z,5.90
2019-03-05T11:40:46.919Z,5.88
2019-03-05T11:43:17.116Z,5.80
2019-03-05T11:45:45.909Z,5.84
2019-03-05T11:48:15.139Z,5.78
2019-03-05T11:50:46.002Z,5.76
2019-03-05T11:53:14.460Z,5.70
2019-03-05T11:55:42.891Z,5.68
2019-03-05T11:58:11.342Z,5.67
2019-03-05T12:00:50.297Z,5.73
2019-03-05T12:03:19.438Z,5.72
2019-03-05T12:05:48.655Z,5.65
2019-03-05T12:08:17.374Z,5.60
2019-03-05T12:10:46.430Z,5.63
2019-03-05T12:13:15.355Z,5.69
2019-03-05T12:15:45.317Z,5.59
2019-03-05T12:18:15.697Z,5.57
2019-03-05T12:20:44.382Z,5.52
2019-03-05T12:23:13.171Z,5.50
2019-03-05T12:25:42.105Z,5.44
2019-03-05T12:28:11.379Z,5.34
2019-03-05T12:30:40.139Z,5.31
2019-03-05T12:33:08.767Z,5.33
2019-03-05T12:35:37.473Z,5.26
2019-03-05T12:38:07.389Z,5.25
2019-03-05T12:40:35.838Z,5.25
2019-03-05T12:43:04.899Z,5.22
2019-03-05T12:45:33.893Z,5.16
2019-03-05T12:48:02.390Z,5.19
2019-03-05T12:50:33.178Z,5.17
2019-03-05T12:53:01.598Z,5.22
2019-03-05T12:55:30.425Z,5.18
2019-03-05T12:57:59.948Z,5.22
2019-03-05T13:00:33.829Z,5.26
2019-03-05T13:03:02.417Z,5.23
2019-03-05T13:05:30.994Z,5.21
2019-03-05T13:08:00.319Z,5.26
2019-03-05T13:10:35.911Z,5.29
2019-03-05T13:13:04.493Z,5.35
2019-03-05T13:15:37.949Z,5.36
2019-03-05T13:18:06.767Z,5.26
2019-03-05T13:20:35.223Z,5.25
2019-03-05T13:23:08.515Z,5.20
2019-03-05T13:25:33.959Z,5.31
2019-03-05T13:28:04.139Z,5.34
2019-03-05T13:30:33.259Z,5.27
2019-03-05T13:33:01.751Z,5.35
2019-03-05T13:35:31.927Z,5.43
2019-03-05T13:38:19.623Z,5.52
2019-03-05T13:40:48.521Z,5.52
2019-03-05T13:43:17.459Z,5.59
2019-03-05T13:45:49.409Z,5.68
2019-03-05T13:48:34.858Z,5.82
2019-03-05T13:51:40.629Z,5.91
2019-03-05T13:54:16.749Z,5.83
2019-03-05T13:57:22.254Z,5.96
2019-03-05T13:59:50.771Z,5.93
2019-03-05T14:02:22.504Z,6.07
2019-03-05T14:05:01.737Z,5.98
2019-03-05T14:07:53.115Z,5.99
2019-03-05T14:10:25.180Z,5.86
2019-03-05T14:12:54.872Z,5.92
2019-03-05T14:15:23.960Z,5.93
2019-03-05T14:17:53.097Z,5.94
2019-03-05T14:20:31.565Z,5.85
2019-03-05T14:22:54.214Z,5.79
2019-03-05T14:25:26.737Z,5.76
2019-03-05T14:27:55.556Z,5.87
2019-03-05T14:30:25.994Z,5.91
2019-03-05T14:32:56.572Z,5.93
2019-03-05T14:35:27.291Z,5.96
2019-03-05T14:37:57.321Z,5.93
2019-03-05T14:40:28.003Z,5.96
2019-03-05T14:42:57.213Z,5.93
2019-03-05T14:45:27.897Z,5.92
2019-03-05T14:47:58.811Z,5.97
2019-03-05T14:50:30.304Z,5.90
2019-03-05T14:53:04.161Z,5.88
2019-03-05T14:55:35.067Z,5.90
2019-03-05T14:58:05.254Z,5.97
2019-03-05T15:00:35.295Z,5.95
2019-03-05T15:03:05.583Z,5.99
2019-03-05T15:05:36.171Z,6.05
2019-03-05T15:08:05.528Z,5.95
2019-03-05T15:10:40.129Z,6.06
2019-03-05T15:13:16.180Z,6.03
2019-03-05T15:15:42.422Z,6.16
2019-03-05T15:18:14.314Z,6.23
2019-03-05T15:20:42.967Z,6.14
2019-03-05T15:23:14.374Z,6.12
2019-03-05T15:25:44.852Z,6.11
2019-03-05T15:28:15.026Z,6.05
2019-03-05T15:30:43.799Z,6.01
2019-03-05T15:33:12.698Z,6.08
2019-03-05T15:35:41.717Z,6.10
2019-03-05T15:38:11.077Z,6.10
2019-03-05T15:40:39.921Z,6.12
2019-03-05T15:43:08.552Z,6.12
2019-03-05T15:45:38.211Z,6.26
2019-03-05T15:48:07.936Z,6.20
2019-03-05T15:50:38.371Z,6.26
2019-03-05T15:53:06.833Z,6.16
2019-03-05T15:55:37.613Z,6.23
2019-03-05T15:58:08.331Z,6.23
2019-03-05T16:00:39.040Z,6.22
2019-03-05T16:03:12.882Z,6.27
2019-03-05T16:05:46.850Z,6.26
2019-03-05T16:08:20.893Z,6.35
2019-03-05T16:10:54.711Z,6.23
2019-03-05T16:13:22.036Z,6.19
2019-03-05T16:15:50.801Z,6.31
2019-03-05T16:18:19.922Z,6.32
2019-03-05T16:20:48.913Z,6.21
2019-03-05T16:23:18.382Z,6.24
2019-03-05T16:25:50.382Z,6.38
2019-03-05T16:28:21.387Z,6.27
2019-03-05T16:30:53.240Z,6.43
2019-03-05T16:33:32.376Z,6.35
2019-03-05T16:36:04.259Z,6.36
2019-03-05T16:38:46.498Z,6.32
2019-03-05T16:41:20.530Z,6.34
2019-03-05T16:44:04.445Z,6.25
2019-03-05T16:46:50.704Z,6.29
2019-03-05T16:49:36.755Z,6.25
2019-03-05T16:52:12.823Z,6.28
2019-03-05T16:54:46.514Z,6.32
2019-03-05T16:57:20.104Z,6.26
2019-03-05T16:59:53.751Z,6.19
2019-03-05T17:02:35.957Z,6.19
2019-03-05T17:05:23.793Z,6.20
2019-03-05T17:07:57.125Z,6.22
2019-03-05T17:10:46.280Z,6.31
2019-03-05T17:13:15.071Z,6.26
2019-03-05T17:15:43.934Z,6.16
2019-03-05T17:18:12.748Z,6.12
2019-03-05T17:20:41.541Z,6.16
2019-03-05T17:23:10.498Z,6.19
2019-03-05T17:25:42.333Z,6.25
2019-03-05T17:28:11.140Z,6.14
2019-03-05T17:30:40.216Z,6.16
2019-03-05T17:33:08.728Z,6.13
2019-03-05T17:35:37.185Z,6.09
2019-03-05T17:38:06.196Z,6.09
2019-03-05T17:40:34.646Z,6.15
2019-03-05T17:43:03.071Z,6.18
2019-03-05T17:45:31.530Z,6.27
2019-03-05T17:47:59.884Z,6.29
2019-03-05T17:50:28.261Z,6.22
2019-03-05T17:52:56.718Z,6.02
2019-03-05T17:55:27.330Z,6.14
2019-03-05T17:57:55.758Z,6.07
2019-03-05T18:00:28.505Z,6.22
2019-03-05T18:02:56.995Z,6.12
2019-03-05T18:05:25.447Z,6.22
2019-03-05T18:07:53.879Z,6.27
2019-03-05T18:10:22.703Z,6.31
2019-03-05T18:12:51.125Z,6.23
2019-03-05T18:15:19.589Z,6.23
2019-03-05T18:17:48.015Z,6.35
2019-03-05T18:20:18.945Z,6.33
2019-03-05T18:22:47.749Z,6.33
2019-03-05T18:25:16.943Z,6.34
2019-03-05T18:27:46.058Z,6.33
2019-03-05T18:30:20.281Z,6.31
2019-03-05T18:32:48.724Z,6.35
2019-03-05T18:35:17.339Z,6.27
2019-03-05T18:37:45.780Z,6.22
2019-03-05T18:40:19.119Z,6.30
2019-03-05T18:42:47.671Z,6.38
2019-03-05T18:45:30.437Z,6.27
2019-03-05T18:47:59.376Z,6.31
2019-03-05T18:50:28.372Z,6.22
2019-03-05T18:52:58.572Z,6.19
2019-03-05T18:55:27.264Z,6.24
2019-03-05T18:57:56.252Z,6.18
2019-03-05T19:00:27.189Z,6.26
2019-03-05T19:02:58.281Z,6.21
2019-03-05T19:05:27.351Z,6.18
2019-03-05T19:08:00.034Z,6.09
2019-03-05T19:10:28.662Z,6.16
2019-03-05T19:12:57.548Z,6.17
2019-03-05T19:15:27.135Z,6.20
2019-03-05T19:17:55.662Z,6.09
2019-03-05T19:20:31.900Z,5.95
2019-03-05T19:23:00.400Z,6.10
2019-03-05T19:25:30.293Z,6.14
2019-03-05T19:27:58.819Z,6.16
2019-03-05T19:30:33.776Z,6.16
2019-03-05T19:33:02.649Z,6.18
2019-03-05T19:35:31.149Z,6.14
2019-03-05T19:37:59.534Z,6.12
2019-03-05T19:40:33.616Z,6.05
2019-03-05T19:43:02.006Z,6.08
2019-03-05T19:45:30.530Z,6.06
2019-03-05T19:47:58.970Z,6.07
2019-03-05T19:50:27.800Z,6.15
2019-03-05T19:52:56.839Z,6.16
2019-03-05T19:55:31.829Z,6.08
2019-03-05T19:58:11.163Z,6.09
2019-03-05T20:00:58.434Z,6.13
2019-03-05T20:03:26.966Z,6.16
2019-03-05T20:05:55.385Z,6.10
2019-03-05T20:08:23.838Z,6.14
2019-03-05T20:10:52.431Z,6.19
2019-03-05T20:13:21.228Z,6.10
2019-03-05T20:15:49.865Z,6.13
2019-03-05T20:18:18.330Z,6.13
2019-03-05T20:20:46.765Z,6.21
2019-03-05T20:23:15.230Z,6.16
2019-03-05T20:25:43.659Z,6.24
2019-03-05T20:28:12.180Z,6.27
2019-03-05T20:30:40.598Z,6.26
2019-03-05T20:33:09.057Z,6.19
2019-03-05T20:35:37.524Z,6.23
2019-03-05T20:38:06.149Z,6.21
2019-03-05T20:40:34.622Z,6.21
2019-03-05T20:43:04.199Z,6.21
2019-03-05T20:45:44.984Z,6.17
2019-03-05T20:48:13.860Z,6.21
2019-03-05T20:50:42.386Z,6.14
2019-03-05T20:53:10.825Z,6.19
2019-03-05T20:55:39.432Z,6.24
2019-03-05T20:58:07.930Z,6.32
2019-03-05T21:00:37.870Z,6.33
2019-03-05T21:03:10.421Z,6.29
2019-03-05T21:05:44.151Z,6.20
2019-03-05T21:08:12.734Z,6.33
2019-03-05T21:10:41.196Z,6.26
2019-03-05T21:13:11.463Z,6.28
2019-03-05T21:15:40.154Z,6.34
2019-03-05T21:18:11.675Z,6.38
2019-03-05T21:20:40.406Z,6.36
2019-03-05T21:23:08.898Z,6.45
2019-03-05T21:25:37.282Z,6.47
2019-03-05T21:28:05.871Z,6.49
2019-03-05T21:30:34.376Z,6.51
2019-03-05T21:33:02.962Z,6.47
2019-03-05T21:35:31.491Z,6.46
2019-03-05T21:37:59.843Z,6.45
2019-03-05T21:40:31.383Z,6.55
2019-03-05T21:42:59.885Z,6.54
2019-03-05T21:45:34.035Z,6.56
2019-03-05T21:48:02.709Z,6.59
2019-03-05T21:50:31.073Z,6.57
2019-03-05T21:52:59.416Z,6.51
2019-03-05T21:55:28.719Z,6.53
2019-03-05T21:57:59.236Z,6.51
2019-03-05T22:00:32.965Z,6.50
2019-03-05T22:03:02.618Z,6.47
2019-03-05T22:05:31.923Z,6.44
2019-03-05T22:08:01.241Z,6.48
2019-03-05T22:10:33.717Z,6.46
2019-03-05T22:13:03.099Z,6.50
2019-03-05T22:15:33.143Z,6.51
2019-03-05T22:18:02.849Z,6.52
2019-03-05T22:20:33.194Z,6.50
2019-03-05T22:23:03.282Z,6.47
2019-03-05T22:25:31.962Z,6.49
2019-03-05T22:28:00.867Z,6.42
2019-03-05T22:30:31.933Z,6.43
2019-03-05T22:33:00.915Z,6.46
2019-03-05T22:35:29.641Z,6.43
2019-03-05T22:37:58.285Z,6.46
2019-03-05T22:40:28.340Z,6.39
2019-03-05T22:42:57.126Z,6.36
2019-03-05T22:45:30.241Z,6.39
2019-03-05T22:47:58.721Z,6.40
2019-03-05T22:50:28.396Z,6.39
2019-03-05T22:52:57.131Z,6.40
2019-03-05T22:55:26.520Z,6.44
2019-03-05T22:57:55.423Z,6.47
2019-03-05T23:00:38.453Z,6.47
2019-03-05T23:03:09.428Z,6.48
2019-03-05T23:05:38.908Z,6.50
2019-03-05T23:08:11.675Z,6.45
2019-03-05T23:10:42.589Z,6.48
2019-03-05T23:13:13.150Z,6.55
2019-03-05T23:15:41.573Z,6.62
2019-03-05T23:18:12.466Z,6.56
2019-03-05T23:20:40.963Z,6.54
2019-03-05T23:23:09.424Z,6.52
2019-03-05T23:25:37.926Z,6.52
2019-03-05T23:28:07.293Z,6.51
2019-03-05T23:30:35.722Z,6.42
2019-03-05T23:33:04.369Z,6.44
2019-03-05T23:35:32.895Z,6.38
2019-03-05T23:38:01.346Z,6.34
2019-03-05T23:40:29.699Z,6.25
2019-03-05T23:42:58.239Z,6.20
2019-03-05T23:45:26.741Z,6.16
2019-03-05T23:47:55.135Z,6.19
2019-03-05T23:50:23.560Z,6.10
2019-03-05T23:52:52.122Z,6.00
2019-03-05T23:55:20.553Z,5.94
2019-03-05T23:57:49.050Z,5.91
